createdAt,value
2017-09-30T00:00:31.845Z,99.90
2017-09-30T00:02:59.317Z,99.90
2017-09-30T00:05:26.763Z,99.90
2017-09-30T00:07:54.225Z,99.90
2017-09-30T00:10:21.692Z,99.90
2017-09-30T00:12:49.139Z,99.90
2017-09-30T00:15:17.383Z,99.90
2017-09-30T00:17:44.826Z,99.90
2017-09-30T00:20:12.284Z,99.90
2017-09-30T00:22:40.505Z,99.90
2017-09-30T00:25:07.976Z,99.90
2017-09-30T00:27:35.425Z,99.90
2017-09-30T00:30:03.644Z,99.90
2017-09-30T00:32:31.104Z,99.90
2017-09-30T00:34:58.568Z,99.90
2017-09-30T00:37:26.791Z,99.90
2017-09-30T00:39:54.352Z,99.90
2017-09-30T00:42:22.572Z,99.90
2017-09-30T00:44:50.056Z,99.90
2017-09-30T00:47:17.502Z,99.90
2017-09-30T00:49:44.970Z,99.90
2017-09-30T00:52:12.416Z,99.90
2017-09-30T00:54:40.655Z,99.90
2017-09-30T00:57:08.120Z,99.90
2017-09-30T00:59:35.582Z,99.90
2017-09-30T01:02:03.043Z,99.90
2017-09-30T01:04:31.307Z,99.90
2017-09-30T01:06:58.755Z,99.90
2017-09-30T01:09:26.222Z,99.90
2017-09-30T01:11:53.687Z,99.90
2017-09-30T01:14:21.152Z,99.90
2017-09-30T01:16:48.617Z,99.90
2017-09-30T01:19:16.073Z,99.90
2017-09-30T01:21:44.302Z,99.90
2017-09-30T01:24:11.766Z,99.90
2017-09-30T01:26:39.205Z,99.90
2017-09-30T01:29:06.679Z,99.90
2017-09-30T01:31:34.136Z,99.90
2017-09-30T01:34:01.684Z,99.90
2017-09-30T01:36:29.170Z,99.90
2017-09-30T01:38:56.636Z,99.90
2017-09-30T01:41:24.080Z,99.90
2017-09-30T01:43:52.332Z,99.90
2017-09-30T01:46:19.823Z,99.90
2017-09-30T01:48:47.264Z,99.90
2017-09-30T01:51:14.770Z,99.90
2017-09-30T01:53:42.192Z,99.90
2017-09-30T01:56:09.663Z,99.90
2017-09-30T01:58:37.896Z,99.90
2017-09-30T02:01:05.360Z,99.90
2017-09-30T02:03:33.626Z,99.90
2017-09-30T02:06:01.100Z,99.90
2017-09-30T02:08:28.549Z,99.90
2017-09-30T02:10:56.790Z,99.90
2017-09-30T02:13:24.251Z,99.90
2017-09-30T02:15:51.705Z,99.90
2017-09-30T02:18:19.180Z,99.90
2017-09-30T02:20:47.390Z,99.90
2017-09-30T02:23:14.910Z,99.90
2017-09-30T02:25:42.351Z,99.90
2017-09-30T02:28:09.815Z,99.90
2017-09-30T02:30:37.276Z,99.90
2017-09-30T02:33:04.893Z,99.90
2017-09-30T02:35:32.356Z,99.90
2017-09-30T02:37:59.796Z,99.90
2017-09-30T02:40:28.023Z,99.90
2017-09-30T02:42:56.688Z,99.90
2017-09-30T02:45:24.907Z,99.90
2017-09-30T02:47:52.374Z,99.90
2017-09-30T02:50:19.833Z,99.90
2017-09-30T02:52:48.065Z,99.90
2017-09-30T02:55:15.544Z,99.90
2017-09-30T02:57:42.998Z,99.90
2017-09-30T03:00:10.444Z,99.90
2017-09-30T03:02:38.676Z,99.90
2017-09-30T03:05:06.168Z,99.90
2017-09-30T03:07:33.633Z,99.90
2017-09-30T03:10:01.074Z,99.90
2017-09-30T03:12:28.545Z,99.90
2017-09-30T03:14:56.779Z,99.90
2017-09-30T03:17:24.232Z,99.90
2017-09-30T03:19:51.696Z,99.90
2017-09-30T03:22:19.143Z,99.90
2017-09-30T03:24:47.377Z,99.90
2017-09-30T03:27:14.825Z,99.90
2017-09-30T03:29:43.058Z,99.90
2017-09-30T03:32:10.530Z,99.90
2017-09-30T03:34:38.615Z,99.90
2017-09-30T03:37:06.083Z,99.90
2017-09-30T03:39:33.536Z,99.90
2017-09-30T03:42:02.628Z,99.90
2017-09-30T03:44:30.102Z,99.90
2017-09-30T03:46:57.577Z,99.90
2017-09-30T03:49:25.041Z,99.90
2017-09-30T03:51:52.507Z,99.90
2017-09-30T03:54:19.948Z,99.90
2017-09-30T03:56:47.392Z,99.90
2017-09-30T03:59:15.620Z,99.90
2017-09-30T04:01:43.073Z,99.90
2017-09-30T04:04:10.586Z,99.90
2017-09-30T04:06:38.034Z,99.90
2017-09-30T04:09:05.529Z,99.90
2017-09-30T04:11:32.979Z,99.90
2017-09-30T04:14:00.537Z,99.90
2017-09-30T04:16:28.819Z,99.90
2017-09-30T04:18:56.275Z,99.90
2017-09-30T04:21:23.730Z,99.90
2017-09-30T04:23:51.203Z,99.90
2017-09-30T04:26:18.670Z,99.90
2017-09-30T04:28:46.110Z,99.90
2017-09-30T04:31:14.361Z,99.90
2017-09-30T04:33:41.837Z,99.90
2017-09-30T04:36:09.304Z,99.90
2017-09-30T04:38:36.788Z,99.90
2017-09-30T04:41:04.345Z,99.90
2017-09-30T04:43:31.786Z,99.90
2017-09-30T04:45:59.227Z,99.90
2017-09-30T04:48:26.691Z,99.90
2017-09-30T04:50:54.145Z,99.90
2017-09-30T04:53:21.624Z,99.90
2017-09-30T04:55:49.067Z,99.90
2017-09-30T04:58:16.508Z,99.90
2017-09-30T05:00:43.968Z,99.90
2017-09-30T05:03:11.431Z,99.90
2017-09-30T05:05:38.907Z,99.90
2017-09-30T05:08:06.370Z,99.90
2017-09-30T05:10:33.918Z,99.90
2017-09-30T05:13:02.105Z,99.90
2017-09-30T05:15:29.576Z,99.90
2017-09-30T05:17:57.015Z,99.90
2017-09-30T05:20:24.463Z,99.90
2017-09-30T05:22:51.984Z,99.90
2017-09-30T05:25:20.208Z,99.90
2017-09-30T05:27:47.657Z,99.90
2017-09-30T05:30:15.888Z,99.90
2017-09-30T05:32:43.360Z,99.90
2017-09-30T05:35:11.564Z,99.90
2017-09-30T05:37:39.035Z,99.90
2017-09-30T05:40:06.491Z,99.90
2017-09-30T05:42:33.931Z,99.90
2017-09-30T05:45:02.184Z,99.90
2017-09-30T05:47:29.640Z,99.90
2017-09-30T05:49:57.112Z,99.90
2017-09-30T05:52:24.555Z,99.90
2017-09-30T05:54:52.816Z,99.90
2017-09-30T05:57:20.295Z,99.90
2017-09-30T05:59:47.775Z,99.90
2017-09-30T06:02:15.211Z,99.90
2017-09-30T06:04:42.679Z,99.90
2017-09-30T06:07:10.119Z,99.90
2017-09-30T06:09:38.395Z,99.90
2017-09-30T06:12:05.859Z,99.90
2017-09-30T06:14:33.300Z,99.90
2017-09-30T06:17:00.787Z,99.90
2017-09-30T06:19:28.234Z,99.90
2017-09-30T06:21:59.724Z,99.90
2017-09-30T06:24:27.180Z,99.90
2017-09-30T06:26:54.621Z,99.90
2017-09-30T06:29:22.072Z,99.90
2017-09-30T06:31:49.524Z,99.90
2017-09-30T06:34:16.988Z,99.90
2017-09-30T06:36:44.435Z,99.90
2017-09-30T06:39:12.676Z,99.90
2017-09-30T06:41:40.152Z,99.90
2017-09-30T06:44:07.607Z,99.90
2017-09-30T06:46:35.084Z,99.90
2017-09-30T06:49:02.545Z,99.90
2017-09-30T06:51:30.017Z,99.90
2017-09-30T06:53:57.787Z,99.90
2017-09-30T06:56:25.248Z,99.90
2017-09-30T06:58:53.468Z,99.90
2017-09-30T07:01:20.970Z,99.90
2017-09-30T07:03:48.587Z,99.90
2017-09-30T07:06:16.036Z,99.90
2017-09-30T07:08:43.508Z,99.90
2017-09-30T07:11:10.959Z,99.90
2017-09-30T07:13:38.431Z,99.90
2017-09-30T07:16:05.927Z,99.90
2017-09-30T07:18:33.402Z,99.90
2017-09-30T07:21:00.888Z,99.90
2017-09-30T07:23:28.346Z,99.90
2017-09-30T07:25:55.848Z,99.90
2017-09-30T07:28:23.307Z,99.90
2017-09-30T07:30:50.779Z,99.90
2017-09-30T07:33:18.248Z,99.90
2017-09-30T07:35:45.745Z,99.90
2017-09-30T07:38:13.208Z,99.90
2017-09-30T07:40:40.664Z,99.90
2017-09-30T07:43:08.146Z,99.90
2017-09-30T07:45:36.341Z,99.90
2017-09-30T07:48:03.809Z,99.90
2017-09-30T07:50:31.264Z,99.90
2017-09-30T07:52:58.779Z,99.90
2017-09-30T07:55:26.231Z,99.90
2017-09-30T07:57:53.730Z,99.90
2017-09-30T08:00:21.185Z,99.90
2017-09-30T08:02:48.660Z,99.90
2017-09-30T08:05:16.124Z,99.90
2017-09-30T08:07:43.579Z,99.90
2017-09-30T08:10:11.048Z,99.90
2017-09-30T08:12:39.268Z,99.90
2017-09-30T08:15:06.715Z,99.90
2017-09-30T08:17:34.955Z,99.90
2017-09-30T08:20:02.425Z,99.90
2017-09-30T08:22:30.072Z,99.90
2017-09-30T08:24:57.553Z,99.90
2017-09-30T08:27:25.036Z,99.90
2017-09-30T08:29:52.503Z,99.90
2017-09-30T08:32:20.082Z,99.90
2017-09-30T08:34:48.304Z,99.90
2017-09-30T08:37:20.183Z,99.90
2017-09-30T08:39:47.660Z,99.90
2017-09-30T08:42:15.135Z,99.90
2017-09-30T08:44:42.585Z,99.90
2017-09-30T08:47:10.152Z,99.90
2017-09-30T08:49:38.464Z,99.90
2017-09-30T08:52:06.678Z,99.90
2017-09-30T08:54:34.209Z,99.90
2017-09-30T08:57:01.682Z,99.90
2017-09-30T08:59:29.132Z,99.90
2017-09-30T09:01:56.598Z,99.90
2017-09-30T09:04:24.067Z,99.90
2017-09-30T09:06:51.512Z,99.90
2017-09-30T09:09:18.983Z,99.90
2017-09-30T09:11:46.427Z,99.90
2017-09-30T09:14:14.656Z,99.90
2017-09-30T09:16:42.139Z,99.90
2017-09-30T09:19:09.628Z,99.90
2017-09-30T09:21:37.179Z,98.30
2017-09-30T09:24:04.618Z,99.00
2017-09-30T09:26:32.851Z,99.90
2017-09-30T09:29:00.301Z,99.90
2017-09-30T09:31:27.777Z,99.90
2017-09-30T09:33:55.220Z,99.90
2017-09-30T09:36:22.712Z,98.10
2017-09-30T09:38:50.956Z,97.70
2017-09-30T09:41:18.403Z,97.70
2017-09-30T09:43:45.876Z,99.70
2017-09-30T09:46:13.344Z,99.90
2017-09-30T09:48:40.819Z,99.90
2017-09-30T09:51:08.322Z,99.90
2017-09-30T09:53:35.841Z,99.90
2017-09-30T09:56:03.280Z,99.90
2017-09-30T09:58:30.736Z,99.20
2017-09-30T10:00:58.227Z,96.20
2017-09-30T10:03:25.680Z,91.80
2017-09-30T10:05:53.128Z,90.00
2017-09-30T10:08:21.371Z,83.60
2017-09-30T10:10:48.827Z,83.50
2017-09-30T10:13:16.298Z,81.40
2017-09-30T10:15:43.761Z,83.10
2017-09-30T10:18:11.250Z,78.70
2017-09-30T10:20:38.690Z,75.10
2017-09-30T10:23:06.901Z,73.20
2017-09-30T10:25:35.137Z,74.50
2017-09-30T10:28:02.599Z,74.50
2017-09-30T10:30:30.055Z,73.60
2017-09-30T10:32:57.497Z,76.00
2017-09-30T10:35:25.729Z,70.70
2017-09-30T10:37:53.187Z,70.70
2017-09-30T10:40:20.644Z,70.10
2017-09-30T10:42:49.451Z,80.50
2017-09-30T10:45:17.717Z,78.70
2017-09-30T10:47:45.183Z,78.50
2017-09-30T10:50:12.673Z,77.20
2017-09-30T10:52:40.133Z,76.10
2017-09-30T10:55:07.630Z,72.90
2017-09-30T10:57:35.083Z,72.00
2017-09-30T11:00:02.545Z,72.60
2017-09-30T11:02:30.012Z,71.90
2017-09-30T11:04:57.460Z,75.10
2017-09-30T11:07:24.923Z,74.00
2017-09-30T11:09:53.127Z,74.20
2017-09-30T11:12:20.599Z,74.20
2017-09-30T11:14:48.811Z,81.80
2017-09-30T11:17:16.280Z,81.80
2017-09-30T11:19:43.780Z,85.20
2017-09-30T11:22:11.213Z,85.40
2017-09-30T11:24:39.442Z,86.10
2017-09-30T11:27:06.926Z,86.00
2017-09-30T11:29:35.016Z,86.00
2017-09-30T11:32:02.468Z,86.60
2017-09-30T11:34:29.926Z,88.30
2017-09-30T11:36:57.388Z,90.20
2017-09-30T11:39:25.696Z,90.30
2017-09-30T11:41:53.911Z,90.70
2017-09-30T11:44:22.229Z,91.10
2017-09-30T11:46:50.548Z,91.20
2017-09-30T11:49:17.992Z,91.30
2017-09-30T11:51:45.431Z,92.40
2017-09-30T11:54:12.888Z,92.00
2017-09-30T11:56:41.117Z,93.10
2017-09-30T11:59:08.568Z,93.10
2017-09-30T12:01:36.038Z,92.10
2017-09-30T12:04:04.299Z,90.30
2017-09-30T12:06:32.144Z,90.30
2017-09-30T12:08:59.600Z,90.60
2017-09-30T12:11:27.072Z,92.30
2017-09-30T12:13:54.544Z,91.90
2017-09-30T12:16:23.323Z,83.20
2017-09-30T12:18:51.620Z,77.70
2017-09-30T12:21:19.224Z,77.70
2017-09-30T12:23:46.736Z,73.00
2017-09-30T12:26:14.236Z,72.70
2017-09-30T12:28:41.664Z,72.40
2017-09-30T12:31:09.196Z,71.70
2017-09-30T12:33:36.645Z,72.90
2017-09-30T12:36:04.114Z,75.20
2017-09-30T12:38:31.566Z,74.80
2017-09-30T12:40:59.012Z,76.90
2017-09-30T12:43:27.268Z,82.90
2017-09-30T12:45:54.775Z,82.90
2017-09-30T12:48:22.290Z,83.40
2017-09-30T12:50:49.720Z,84.30
2017-09-30T12:53:17.934Z,87.50
2017-09-30T12:55:45.410Z,87.60
2017-09-30T12:58:12.859Z,87.70
2017-09-30T13:00:40.317Z,88.80
2017-09-30T13:03:07.771Z,88.80
2017-09-30T13:05:35.264Z,89.70
2017-09-30T13:08:02.704Z,90.50
2017-09-30T13:10:30.170Z,91.00
2017-09-30T13:12:57.636Z,91.90
2017-09-30T13:15:25.111Z,93.00
2017-09-30T13:17:52.568Z,93.60
2017-09-30T13:20:20.776Z,94.10
2017-09-30T13:22:48.256Z,94.00
2017-09-30T13:25:16.488Z,93.80
2017-09-30T13:27:43.967Z,93.80
2017-09-30T13:30:11.413Z,94.60
2017-09-30T13:32:39.473Z,95.00
2017-09-30T13:35:08.393Z,95.70
2017-09-30T13:37:35.849Z,95.70
2017-09-30T13:40:04.576Z,96.80
2017-09-30T13:42:32.040Z,96.80
2017-09-30T13:44:59.535Z,97.20
2017-09-30T13:47:26.976Z,97.90
2017-09-30T13:49:55.207Z,99.40
2017-09-30T13:52:22.661Z,99.40
2017-09-30T13:54:50.156Z,99.80
2017-09-30T13:57:17.600Z,99.90
2017-09-30T13:59:45.836Z,99.90
2017-09-30T14:02:13.292Z,99.90
2017-09-30T14:04:40.758Z,99.90
2017-09-30T14:07:08.228Z,99.90
2017-09-30T14:09:36.386Z,99.90
2017-09-30T14:12:03.841Z,99.90
2017-09-30T14:14:31.350Z,99.90
2017-09-30T14:16:58.780Z,99.90
2017-09-30T14:19:26.258Z,99.90
2017-09-30T14:21:53.700Z,99.90
2017-09-30T14:24:21.247Z,99.90
2017-09-30T14:26:49.540Z,99.90
2017-09-30T14:29:17.776Z,99.90
2017-09-30T14:31:45.217Z,99.90
2017-09-30T14:34:13.444Z,99.90
2017-09-30T14:36:40.919Z,99.90
2017-09-30T14:39:08.994Z,99.90
2017-09-30T14:41:36.428Z,99.90
2017-09-30T14:44:03.880Z,99.90
2017-09-30T14:46:31.401Z,99.90
2017-09-30T14:48:59.637Z,99.90
2017-09-30T14:51:27.135Z,99.90
2017-09-30T14:53:54.661Z,99.90
2017-09-30T14:56:22.845Z,99.90
2017-09-30T14:58:50.330Z,99.90
2017-09-30T15:01:18.511Z,99.90
2017-09-30T15:03:45.987Z,99.90
2017-09-30T15:06:13.428Z,99.90
2017-09-30T15:08:41.632Z,99.90
2017-09-30T15:11:09.121Z,99.90
2017-09-30T15:13:37.436Z,99.90
2017-09-30T15:16:04.872Z,99.90
2017-09-30T15:18:33.114Z,99.90
2017-09-30T15:21:00.558Z,99.90
2017-09-30T15:23:28.794Z,99.90
2017-09-30T15:25:56.243Z,99.90
2017-09-30T15:28:23.712Z,99.90
2017-09-30T15:30:51.921Z,99.90
2017-09-30T15:33:19.398Z,99.90
2017-09-30T15:35:46.842Z,99.90
2017-09-30T15:38:15.082Z,99.90
2017-09-30T15:40:42.546Z,99.90
2017-09-30T15:43:10.010Z,99.90
2017-09-30T15:45:37.436Z,99.90
2017-09-30T15:48:05.017Z,99.90
2017-09-30T15:50:32.511Z,99.90
2017-09-30T15:53:00.821Z,99.90
2017-09-30T15:55:29.040Z,99.90
2017-09-30T15:57:56.529Z,99.90
2017-09-30T16:00:23.992Z,99.90
2017-09-30T16:02:51.436Z,99.90
2017-09-30T16:05:19.343Z,99.90
2017-09-30T16:07:46.777Z,99.90
2017-09-30T16:10:14.981Z,99.90
2017-09-30T16:12:46.575Z,99.90
2017-09-30T16:15:14.039Z,99.90
2017-09-30T16:17:41.512Z,99.90
2017-09-30T16:20:08.948Z,99.90
2017-09-30T16:22:36.404Z,99.90
2017-09-30T16:25:03.875Z,99.90
2017-09-30T16:27:31.340Z,99.90
2017-09-30T16:29:58.799Z,99.90
2017-09-30T16:32:26.254Z,99.90
2017-09-30T16:34:53.717Z,99.90
2017-09-30T16:37:21.961Z,99.90
2017-09-30T16:39:49.402Z,99.90
2017-09-30T16:42:16.840Z,99.90
2017-09-30T16:44:44.301Z,99.90
2017-09-30T16:47:11.768Z,99.90
2017-09-30T16:49:39.247Z,99.90
2017-09-30T16:52:06.724Z,99.90
2017-09-30T16:54:34.160Z,99.90
2017-09-30T16:57:01.638Z,99.90
2017-09-30T16:59:29.112Z,99.90
2017-09-30T17:01:56.579Z,99.90
2017-09-30T17:04:24.046Z,99.90
2017-09-30T17:06:52.263Z,99.90
2017-09-30T17:09:19.785Z,99.90
2017-09-30T17:11:47.241Z,99.90
2017-09-30T17:14:15.314Z,99.90
2017-09-30T17:16:42.817Z,99.90
2017-09-30T17:19:10.749Z,99.90
2017-09-30T17:21:38.189Z,99.90
2017-09-30T17:24:06.425Z,99.90
2017-09-30T17:26:33.871Z,99.90
2017-09-30T17:29:02.087Z,99.90
2017-09-30T17:31:29.552Z,99.90
2017-09-30T17:33:57.191Z,99.90
2017-09-30T17:36:24.659Z,99.90
2017-09-30T17:38:52.097Z,99.90
2017-09-30T17:41:19.567Z,99.90
2017-09-30T17:43:47.021Z,99.90
2017-09-30T17:46:14.587Z,99.90
2017-09-30T17:48:42.001Z,99.90
2017-09-30T17:51:09.470Z,99.90
2017-09-30T17:53:36.929Z,99.90
2017-09-30T17:56:04.360Z,99.90
2017-09-30T17:58:31.832Z,99.90
2017-09-30T18:00:59.264Z,99.90
2017-09-30T18:03:26.732Z,99.90
2017-09-30T18:05:54.171Z,99.90
2017-09-30T18:08:22.408Z,99.90
2017-09-30T18:10:49.863Z,99.90
2017-09-30T18:13:17.336Z,99.90
2017-09-30T18:15:45.531Z,99.90
2017-09-30T18:18:12.995Z,99.90
2017-09-30T18:20:40.436Z,99.90
2017-09-30T18:23:07.911Z,99.90
2017-09-30T18:25:36.052Z,99.90
2017-09-30T18:28:03.508Z,99.90
2017-09-30T18:30:31.770Z,99.90
2017-09-30T18:32:59.212Z,99.90
2017-09-30T18:35:26.769Z,99.90
2017-09-30T18:37:55.040Z,99.90
2017-09-30T18:40:23.295Z,99.90
2017-09-30T18:42:50.764Z,99.90
2017-09-30T18:45:18.223Z,99.90
2017-09-30T18:47:45.679Z,99.90
2017-09-30T18:50:13.918Z,99.90
2017-09-30T18:52:41.385Z,99.90
2017-09-30T18:55:08.852Z,99.90
2017-09-30T18:57:36.304Z,99.90
2017-09-30T19:00:03.764Z,99.90
2017-09-30T19:02:31.245Z,99.90
2017-09-30T19:04:58.680Z,99.90
2017-09-30T19:07:26.158Z,99.90
2017-09-30T19:09:53.619Z,99.90
2017-09-30T19:12:21.097Z,99.90
2017-09-30T19:14:49.169Z,99.90
2017-09-30T19:17:16.667Z,99.90
2017-09-30T19:19:44.111Z,99.90
2017-09-30T19:22:11.555Z,99.90
2017-09-30T19:24:39.067Z,99.90
2017-09-30T19:27:06.524Z,99.90
2017-09-30T19:29:34.034Z,99.90
2017-09-30T19:32:01.496Z,99.90
2017-09-30T19:34:28.988Z,99.90
2017-09-30T19:36:56.513Z,99.90
2017-09-30T19:39:24.007Z,99.90
2017-09-30T19:41:51.461Z,99.90
2017-09-30T19:44:18.942Z,99.90
2017-09-30T19:46:47.156Z,99.90
2017-09-30T19:49:14.673Z,99.90
2017-09-30T19:51:42.122Z,99.90
2017-09-30T19:54:09.613Z,99.90
2017-09-30T19:56:37.057Z,99.90
2017-09-30T19:59:04.493Z,99.90
2017-09-30T20:01:32.915Z,99.90
2017-09-30T20:04:00.395Z,99.90
2017-09-30T20:06:27.907Z,99.90
2017-09-30T20:08:56.207Z,99.90
2017-09-30T20:11:23.689Z,99.90
2017-09-30T20:13:51.294Z,99.90
2017-09-30T20:16:19.510Z,99.90
2017-09-30T20:18:46.960Z,99.90
2017-09-30T20:21:14.440Z,99.90
2017-09-30T20:23:41.893Z,99.90
2017-09-30T20:26:10.116Z,99.90
2017-09-30T20:28:37.611Z,99.90
2017-09-30T20:31:05.162Z,99.90
2017-09-30T20:33:32.644Z,99.90
2017-09-30T20:36:00.896Z,99.90
2017-09-30T20:38:28.384Z,99.90
2017-09-30T20:40:56.633Z,99.90
2017-09-30T20:43:24.066Z,99.90
2017-09-30T20:45:51.545Z,99.90
2017-09-30T20:48:19.001Z,99.90
2017-09-30T20:50:47.240Z,99.90
2017-09-30T20:53:14.718Z,99.90
2017-09-30T20:55:42.184Z,99.90
2017-09-30T20:58:09.673Z,99.90
2017-09-30T21:00:37.243Z,99.90
2017-09-30T21:03:04.693Z,99.90
2017-09-30T21:05:32.937Z,99.90
2017-09-30T21:08:00.426Z,99.90
2017-09-30T21:10:27.904Z,99.90
2017-09-30T21:12:56.138Z,99.90
2017-09-30T21:15:23.705Z,99.90
2017-09-30T21:17:51.159Z,99.90
2017-09-30T21:20:19.369Z,99.90
2017-09-30T21:22:46.852Z,99.90
2017-09-30T21:25:14.306Z,99.90
2017-09-30T21:27:42.524Z,99.90
2017-09-30T21:30:10.963Z,99.90
2017-09-30T21:32:38.582Z,99.90
2017-09-30T21:35:06.800Z,99.90
2017-09-30T21:37:34.264Z,99.90
2017-09-30T21:40:01.716Z,99.90
2017-09-30T21:42:29.972Z,99.90
2017-09-30T21:44:57.443Z,99.90
2017-09-30T21:47:24.900Z,99.90
2017-09-30T21:49:52.372Z,99.90
2017-09-30T21:52:19.867Z,99.90
2017-09-30T21:54:47.316Z,99.90
2017-09-30T21:57:14.794Z,99.90
2017-09-30T21:59:42.287Z,99.90
2017-09-30T22:02:09.740Z,99.90
2017-09-30T22:04:37.204Z,99.90
2017-09-30T22:07:04.689Z,99.90
2017-09-30T22:09:32.150Z,99.90
2017-09-30T22:12:00.491Z,99.90
2017-09-30T22:14:27.928Z,99.90
2017-09-30T22:16:55.386Z,99.90
2017-09-30T22:19:22.836Z,99.90
2017-09-30T22:21:51.065Z,99.90
2017-09-30T22:24:18.533Z,99.90
2017-09-30T22:26:46.111Z,99.90
2017-09-30T22:29:13.560Z,99.90
2017-09-30T22:31:41.780Z,99.90
2017-09-30T22:34:09.243Z,99.90
2017-09-30T22:36:37.445Z,99.90
2017-09-30T22:39:04.918Z,99.90
2017-09-30T22:41:32.374Z,99.90
2017-09-30T22:44:00.591Z,99.90
2017-09-30T22:46:28.044Z,99.90
2017-09-30T22:48:56.295Z,99.90
2017-09-30T22:51:23.784Z,99.90
2017-09-30T22:53:51.224Z,99.90
2017-09-30T22:56:18.693Z,99.90
2017-09-30T22:58:46.150Z,99.90
2017-09-30T23:01:13.648Z,99.90
2017-09-30T23:03:41.235Z,99.90
2017-09-30T23:06:08.705Z,99.90
2017-09-30T23:08:36.168Z,99.90
2017-09-30T23:11:04.448Z,99.90
2017-09-30T23:13:32.786Z,99.90
2017-09-30T23:16:00.242Z,99.90
2017-09-30T23:18:27.714Z,99.90
2017-09-30T23:20:55.178Z,99.90
2017-09-30T23:23:22.624Z,99.90
2017-09-30T23:25:50.863Z,99.90
2017-09-30T23:28:18.306Z,99.90
2017-09-30T23:30:45.772Z,99.90
2017-09-30T23:33:13.261Z,99.90
2017-09-30T23:35:40.721Z,99.90
2017-09-30T23:38:08.206Z,99.90
2017-09-30T23:40:36.421Z,99.90
2017-09-30T23:43:03.885Z,99.90
2017-09-30T23:45:31.357Z,99.90
2017-09-30T23:47:58.847Z,99.90
2017-09-30T23:50:26.339Z,99.90
2017-09-30T23:52:53.817Z,99.90
2017-09-30T23:55:21.293Z,99.90
2017-09-30T23:57:48.765Z,99.90
